Аэропорт: Актобе. Актобе

ICAO: UATT

METAR:
2019/05/26 14:00
UATT 261400Z 18006MPS CAVOK 25/M02 Q1019 R13/CLRD70 NOSIG RMK QFE744/0993
METAR:
2019/05/26 12:18
TAF UATT 261100Z 2612/2712 18005MPS 9999 SCT030 TX26/2711Z TN16/2701Z 
      TEMPO 2618/2706 16011MPS 
      TEMPO 2706/2712 16011MPS